CheckWX is a tool to help pilots better visualize weather data.  It is not intended as a substitute for an official pre-flight weather briefing.

20:40:58 UTC

FBKE TAF
Kasane Airport
Kasane, Botswana
TAF FBKE 221200Z 2215/2224 12012KT 9999 SCT030

Mar-22@
15:00 UTC

Mar-22 @ 15:00 UTC

Mar-23@
00:00 UTC

Mar-23 @ 00:00 UTC

TAF FBKE 221200Z 2215/2224 12012KT 9999 SCT030
Wind
  • 120° at 12 KTS
Cloud Levels
  • Scattered at 3,000' AGL